Time;durP1;ratioP1;P1;durP2;ratioP2;P2;SDS_P1;SDS_P2;PMS_P1;PMS_P2;Temp;Humidity;BMP_temperature;BMP_pressure;BME280_temperature;BME280_humidity;BME280_pressure;Samples;Min_cycle;Max_cycle;Signal;HPM_P1;HPM_P2
2022/04/23 00:02:39;;;;;;;26.63;17.23;;;9.40;99.90;;;7.86;100.00;98982.44;10349126;28;96592;-77
2022/04/23 00:07:42;;;;;;;20.57;14.53;;;9.50;99.90;;;7.86;100.00;98973.69;10322765;28;97425;-77
2022/04/23 00:12:46;;;;;;;23.20;16.37;;;9.50;99.90;;;7.85;100.00;98982.59;10331772;28;97669;-77
2022/04/23 00:17:49;;;;;;;24.13;15.40;;;9.40;99.90;;;7.87;100.00;98980.63;10322024;28;99462;-77
2022/04/23 00:22:52;;;;;;;24.37;16.97;;;9.40;99.90;;;7.87;100.00;98984.09;10298279;28;96891;-77
2022/04/23 00:27:55;;;;;;;23.83;16.23;;;9.50;99.90;;;7.87;100.00;98978.81;10331630;28;96878;-77
2022/04/23 00:33:02;;;;;;;22.83;16.03;;;9.50;99.90;;;7.91;100.00;98981.88;10351419;28;96574;-77
2022/04/23 00:38:07;;;;;;;21.70;15.00;;;9.50;99.90;;;7.92;100.00;98976.44;10313642;28;98039;-77
2022/04/23 00:43:30;;;;;;;23.97;16.43;;;9.50;99.90;;;7.93;100.00;98979.91;10325152;28;97489;-77
2022/04/23 00:48:34;;;;;;;23.70;16.07;;;9.50;99.90;;;7.95;100.00;98983.19;10316259;28;98250;-77
2022/04/23 00:53:38;;;;;;;23.57;16.83;;;9.50;99.90;;;7.97;100.00;98986.47;10355698;28;96782;-77
2022/04/23 00:58:41;;;;;;;23.83;16.67;;;9.50;99.90;;;7.98;100.00;98982.84;10299660;28;96768;-77
2022/04/23 01:03:44;;;;;;;22.37;16.40;;;9.60;99.90;;;7.98;100.00;98990.78;10341506;28;96720;-77
2022/04/23 01:08:47;;;;;;;24.57;15.57;;;9.60;99.90;;;7.99;100.00;98989.75;10294153;28;97945;-77
2022/04/23 01:13:51;;;;;;;26.57;17.83;;;9.60;99.90;;;8.00;100.00;98996.69;10314780;28;96663;-77
2022/04/23 01:18:54;;;;;;;26.67;16.20;;;9.60;99.90;;;7.98;100.00;98998.72;10328737;28;96903;-77
2022/04/23 01:23:58;;;;;;;23.33;15.63;;;9.60;99.90;;;7.95;100.00;98989.28;10322822;28;97381;-77
2022/04/23 01:29:01;;;;;;;27.87;15.80;;;9.50;99.90;;;7.94;100.00;98989.47;10302948;28;96616;-77
2022/04/23 01:34:04;;;;;;;23.03;15.27;;;9.50;99.90;;;7.91;100.00;98993.28;10358468;28;96499;-77
2022/04/23 01:39:07;;;;;;;24.07;15.20;;;9.50;99.90;;;7.86;100.00;98985.09;10304044;28;96545;-77
2022/04/23 01:44:10;;;;;;;21.80;15.50;;;9.50;99.90;;;7.83;100.00;98993.38;10362094;28;96681;-77
2022/04/23 01:49:13;;;;;;;24.33;16.37;;;9.40;99.90;;;7.81;100.00;98991.94;10333704;28;98519;-79
2022/04/23 01:54:16;;;;;;;25.13;16.27;;;9.40;99.90;;;7.81;100.00;98986.63;10332214;28;97367;-77
2022/04/23 01:59:19;;;;;;;24.67;15.13;;;9.40;99.90;;;7.79;100.00;98995.53;10325769;28;96546;-77
2022/04/23 02:04:22;;;;;;;25.60;16.53;;;9.40;99.90;;;7.80;100.00;98988.47;10338087;28;97339;-77
2022/04/23 02:09:25;;;;;;;24.00;16.47;;;9.40;99.90;;;7.82;100.00;98990.91;10333843;28;97397;-78
2022/04/23 02:14:28;;;;;;;26.43;16.00;;;9.40;99.90;;;7.85;100.00;98998.47;10300499;28;97442;-78
2022/04/23 02:19:32;;;;;;;23.07;16.37;;;9.40;99.90;;;7.85;100.00;99001.13;10329750;28;96747;-78
2022/04/23 02:24:35;;;;;;;26.03;16.57;;;9.40;99.90;;;7.86;100.00;99000.16;10312991;28;97413;-78
2022/04/23 02:29:39;;;;;;;24.60;16.73;;;9.40;99.90;;;7.88;100.00;99009.53;10331366;28;96904;-77
2022/04/23 02:34:42;;;;;;;22.77;16.43;;;9.50;99.90;;;7.89;100.00;99010.34;10345414;28;96854;-77
2022/04/23 02:39:45;;;;;;;24.30;17.13;;;9.50;99.90;;;7.89;100.00;99015.66;10366316;28;96471;-77
2022/04/23 02:44:50;;;;;;;24.13;16.63;;;9.50;99.90;;;7.89;100.00;99013.81;10354711;28;96700;-77
2022/04/23 02:49:53;;;;;;;25.07;16.07;;;9.50;99.90;;;7.91;100.00;99008.34;10366422;28;99898;-77
2022/04/23 02:54:56;;;;;;;23.97;16.50;;;9.50;99.90;;;7.91;100.00;99019.75;10325573;28;96622;-77
2022/04/23 03:00:00;;;;;;;22.40;14.93;;;9.50;99.90;;;7.89;100.00;99015.66;10343289;28;96696;-77
2022/04/23 03:05:11;;;;;;;19.47;13.50;;;9.50;99.90;;;7.84;100.00;99018.00;10291588;28;96640;-77
2022/04/23 03:10:16;;;;;;;18.48;12.57;;;9.40;99.90;;;7.79;100.00;99011.41;10336980;28;96796;-77
2022/04/23 03:15:19;;;;;;;20.50;14.53;;;9.40;99.90;;;7.79;100.00;99015.88;10329898;28;96427;-78
2022/04/23 03:20:22;;;;;;;23.50;13.87;;;9.40;99.90;;;7.76;100.00;99025.00;10329863;28;96903;-78
2022/04/23 03:25:25;;;;;;;20.40;14.07;;;9.40;99.90;;;7.75;100.00;99026.00;10317829;28;98871;-77
2022/04/23 03:30:29;;;;;;;18.40;12.87;;;9.30;99.90;;;7.74;100.00;99029.66;10292052;28;97253;-77
2022/04/23 03:35:32;;;;;;;23.57;13.60;;;9.30;99.90;;;7.72;100.00;99031.66;10299961;28;97876;-76
2022/04/23 03:40:36;;;;;;;19.03;14.13;;;9.30;99.90;;;7.70;100.00;99038.94;10312382;28;96852;-77
2022/04/23 03:45:39;;;;;;;18.30;12.77;;;9.30;99.90;;;7.72;100.00;99050.16;10311858;28;96651;-77
2022/04/23 03:50:42;;;;;;;20.07;13.67;;;9.30;99.90;;;7.71;100.00;99055.63;10336580;28;98163;-77
2022/04/23 03:55:45;;;;;;;21.03;13.57;;;9.30;99.90;;;7.71;100.00;99051.16;10291620;28;96516;-78
2022/04/23 04:00:47;;;;;;;20.50;14.27;;;9.30;99.90;;;7.72;100.00;99049.34;10308814;28;97384;-78
2022/04/23 04:05:50;;;;;;;21.63;14.13;;;9.30;99.90;;;7.72;100.00;99046.69;10348914;28;97124;-77
2022/04/23 04:10:53;;;;;;;24.27;15.57;;;9.30;99.90;;;7.72;100.00;99050.16;10328829;28;98596;-77
2022/04/23 04:15:56;;;;;;;33.40;21.40;;;9.30;99.90;;;7.74;100.00;99050.81;10309741;28;98252;-77
2022/04/23 04:20:59;;;;;;;28.37;16.93;;;9.30;99.90;;;7.77;100.00;99061.03;10347727;28;96606;-77
2022/04/23 04:26:02;;;;;;;20.40;13.50;;;9.30;99.90;;;7.81;100.00;99058.03;10359136;28;96567;-77
2022/04/23 04:36:27;;;;;;;19.17;12.50;;;9.40;99.90;;;7.85;100.00;99064.59;10296209;28;97198;-78
2022/04/23 04:41:31;;;;;;;20.00;13.67;;;9.40;99.90;;;7.87;100.00;99062.63;10297150;28;96520;-78
2022/04/23 04:46:35;;;;;;;18.77;13.27;;;9.40;99.90;;;7.89;100.00;99074.66;10343501;28;97003;-78
2022/04/23 04:51:39;;;;;;;17.13;12.70;;;9.40;99.90;;;7.89;100.00;99064.06;10310948;28;98311;-78
2022/04/23 04:56:42;;;;;;;17.67;12.83;;;9.40;99.90;;;7.95;100.00;99067.84;10333700;28;97410;-78
2022/04/23 05:01:45;;;;;;;19.50;12.83;;;9.50;99.90;;;7.99;100.00;99069.94;10333869;28;96529;-78
2022/04/23 05:06:48;;;;;;;22.13;15.43;;;9.60;99.90;;;8.07;100.00;99066.41;10296863;28;96657;-78
2022/04/23 05:11:51;;;;;;;22.20;15.80;;;9.60;99.90;;;8.21;100.00;99078.00;10300819;28;96557;-78
2022/04/23 05:16:54;;;;;;;20.80;13.87;;;9.70;99.90;;;8.30;100.00;99084.88;10319961;28;96654;-77
2022/04/23 05:21:57;;;;;;;17.13;12.43;;;9.80;99.90;;;8.37;100.00;99083.19;10319259;28;97444;-77
2022/04/23 05:27:00;;;;;;;16.30;11.67;;;9.90;99.90;;;8.46;100.00;99086.59;10326289;28;96607;-78
2022/04/23 05:32:04;;;;;;;17.17;11.70;;;10.00;99.90;;;8.57;100.00;99080.81;10318569;28;96692;-78
2022/04/23 05:37:07;;;;;;;15.17;11.40;;;10.10;99.90;;;8.72;100.00;99092.25;10346091;28;97583;-78
2022/04/23 05:42:10;;;;;;;15.23;11.57;;;10.20;99.90;;;8.89;100.00;99092.88;10326309;28;96858;-78
2022/04/23 05:47:13;;;;;;;14.80;10.87;;;10.40;99.90;;;9.06;100.00;99090.88;10324505;28;98368;-77
2022/04/23 05:52:16;;;;;;;16.13;9.93;;;10.50;99.90;;;9.24;100.00;99096.59;10327701;28;97630;-78
2022/04/23 05:57:19;;;;;;;12.23;9.47;;;10.70;99.90;;;9.44;100.00;99093.34;10302408;28;96566;-78
2022/04/23 06:02:22;;;;;;;13.07;8.27;;;10.90;99.90;;;9.59;100.00;99099.41;10321720;28;96813;-78
2022/04/23 06:07:26;;;;;;;11.07;9.27;;;11.10;99.90;;;9.63;100.00;99090.06;10323593;28;96542;-78
2022/04/23 06:12:29;;;;;;;10.33;8.87;;;11.10;99.90;;;9.72;100.00;99104.88;10312893;28;97417;-78
2022/04/23 06:17:32;;;;;;;13.10;9.70;;;11.20;99.90;;;9.80;100.00;99111.88;10333828;28;97271;-78
2022/04/23 06:22:35;;;;;;;11.17;8.90;;;11.30;99.90;;;9.85;100.00;99120.91;10334462;28;97051;-78
2022/04/23 06:27:38;;;;;;;10.70;8.93;;;11.40;99.90;;;9.83;100.00;99138.81;10307677;28;97137;-78
2022/04/23 06:32:40;;;;;;;13.00;9.60;;;11.40;99.90;;;9.87;100.00;99140.09;10312603;28;96937;-79
2022/04/23 06:37:44;;;;;;;11.20;8.83;;;11.50;99.90;;;9.91;100.00;99145.88;10340312;28;96916;-77
2022/04/23 06:42:47;;;;;;;10.07;7.57;;;11.50;99.90;;;9.91;100.00;99159.13;10318917;28;98050;-79
2022/04/23 06:48:04;;;;;;;12.53;8.27;;;11.60;99.90;;;9.96;100.00;99164.69;10310077;28;96862;-80
2022/04/23 06:53:08;;;;;;;10.33;8.23;;;11.60;99.90;;;9.97;100.00;99160.22;10337302;28;98436;-80
2022/04/23 06:58:11;;;;;;;9.60;7.97;;;11.60;99.90;;;10.02;100.00;99158.63;10331407;28;98490;-80
2022/04/23 07:03:14;;;;;;;10.70;8.33;;;11.60;99.90;;;10.12;100.00;99163.63;10335723;28;97848;-81
2022/04/23 07:08:17;;;;;;;9.20;7.90;;;11.70;99.90;;;10.19;100.00;99164.50;10330410;28;97253;-81
2022/04/23 07:13:21;;;;;;;11.07;7.20;;;11.80;99.90;;;10.32;100.00;99169.16;10295119;28;96966;-81
2022/04/23 07:18:23;;;;;;;11.57;8.63;;;11.90;99.90;;;10.41;100.00;99178.63;10290978;28;98463;-81
2022/04/23 07:28:48;;;;;;;8.85;7.22;;;12.10;99.90;;;10.63;100.00;99185.53;10291373;28;96579;-80
2022/04/23 07:39:13;;;;;;;8.07;6.17;;;12.20;99.90;;;10.55;100.00;99190.16;10317320;28;96947;-80
2022/04/23 07:44:16;;;;;;;8.20;6.80;;;12.20;99.90;;;10.49;100.00;99189.09;10323989;28;96819;-81
2022/04/23 07:49:19;;;;;;;7.87;5.97;;;12.10;99.90;;;10.49;100.00;99196.25;10298793;28;96924;-80
2022/04/23 07:54:23;;;;;;;8.27;6.50;;;12.10;99.90;;;10.51;100.00;99204.84;10314533;28;97044;-81
2022/04/23 07:59:26;;;;;;;8.10;6.60;;;12.10;99.90;;;10.58;100.00;99211.84;10324415;28;98986;-81
2022/04/23 08:04:29;;;;;;;8.23;6.43;;;12.20;99.90;;;10.65;100.00;99218.03;10299811;28;96620;-80
2022/04/23 08:09:39;;;;;;;6.13;4.97;;;12.20;99.90;;;10.72;100.00;99218.09;10298009;28;96522;-80
2022/04/23 08:14:43;;;;;;;9.18;6.03;;;12.30;99.90;;;10.82;99.85;99225.75;10296922;28;96450;-79
2022/04/23 08:19:46;;;;;;;8.97;6.27;;;12.40;99.90;;;10.88;99.57;99223.13;10303200;28;96625;-79
2022/04/23 08:24:49;;;;;;;9.43;6.47;;;12.40;99.90;;;10.98;99.96;99222.81;10313396;28;98415;-81
2022/04/23 08:35:13;;;;;;;9.50;6.10;;;12.60;99.90;;;11.21;99.04;99215.34;10298724;28;96626;-81
2022/04/23 08:40:16;;;;;;;9.23;6.90;;;12.80;99.90;;;11.42;98.97;99214.47;10315214;28;96465;-81
2022/04/23 08:45:19;;;;;;;7.80;5.97;;;13.00;99.90;;;11.74;99.65;99220.13;10327896;28;97555;-81
2022/04/23 08:50:25;;;;;;;7.30;5.63;;;13.30;99.90;;;12.08;99.83;99229.06;10296142;28;96408;-81
2022/04/23 08:55:30;;;;;;;6.87;4.77;;;13.60;99.90;;;12.35;98.63;99230.75;10295168;28;96453;-80
2022/04/23 09:00:33;;;;;;;7.93;6.03;;;13.90;99.90;;;12.57;96.88;99228.72;10294690;28;96528;-80
2022/04/23 09:05:36;;;;;;;6.33;5.53;;;14.10;99.90;;;12.75;94.23;99220.13;10296616;28;96514;-81
2022/04/23 09:10:45;;;;;;;7.53;5.63;;;14.30;99.90;;;12.85;92.01;99216.03;10294718;28;96482;-81
2022/04/23 09:26:33;;;;;;;6.25;4.55;;;14.90;99.90;;;13.38;90.14;99256.00;10315065;28;98146;-81
2022/04/23 09:31:36;;;;;;;7.10;5.20;;;15.00;99.90;;;13.51;88.90;99248.97;10294864;28;96450;-81
2022/04/23 09:37:00;;;;;;;9.35;5.25;;;15.20;99.90;;;13.66;85.33;99245.00;10293433;28;96739;-81
2022/04/23 09:42:17;;;;;;;6.05;4.13;;;15.40;99.90;;;13.90;82.56;99254.16;10314499;28;97761;-79
2022/04/23 09:47:31;;;;;;;6.45;4.30;;;15.60;99.90;;;13.92;79.59;99261.97;10339989;28;96779;-78
2022/04/23 09:52:34;;;;;;;7.05;4.70;;;15.70;99.90;;;14.05;80.52;99264.59;10348980;28;97064;-79
2022/04/23 09:57:57;;;;;;;5.97;4.70;;;15.80;99.90;;;14.30;77.79;99255.81;10340174;28;97090;-79
2022/04/23 10:03:06;;;;;;;7.07;4.15;;;16.00;99.90;;;14.68;72.86;99247.75;10311263;28;97454;-79
2022/04/23 10:08:12;;;;;;;6.07;4.55;;;16.30;99.90;;;14.79;74.61;99262.28;10304075;28;96768;-79
2022/04/23 10:13:18;;;;;;;6.38;4.28;;;16.50;99.70;;;14.78;74.49;99269.50;10330580;28;98032;-78
2022/04/23 10:18:23;;;;;;;6.30;4.38;;;16.50;99.20;;;14.81;75.14;99277.06;10331824;28;98435;-77
2022/04/23 10:23:52;;;;;;;8.82;5.00;;;16.50;98.80;;;14.65;72.27;99275.75;10340695;28;96596;-77
2022/04/23 10:28:56;;;;;;;5.88;4.93;;;16.40;97.10;;;14.45;71.13;99283.91;10294595;28;96540;-79
2022/04/23 10:33:59;;;;;;;7.35;5.03;;;16.30;97.10;;;14.41;75.48;99281.84;10350254;28;96762;-78
2022/04/23 10:39:22;;;;;;;7.32;4.60;;;16.20;98.50;;;14.30;72.27;99279.88;10313879;28;97081;-77
2022/04/23 10:44:30;;;;;;;6.65;4.93;;;16.10;97.30;;;14.06;72.10;99273.41;10313462;28;98087;-76
2022/04/23 10:49:33;;;;;;;7.65;5.05;;;15.90;97.40;;;14.04;72.57;99270.97;10287274;28;97564;-77
2022/04/23 10:54:40;;;;;;;6.10;5.20;;;15.80;98.00;;;13.97;68.31;99278.16;10322810;28;97505;-77
2022/04/23 10:59:49;;;;;;;7.05;5.38;;;15.80;96.50;;;13.83;69.78;99284.59;10303407;28;97380;-77
2022/04/23 11:16:18;;;;;;;5.40;4.57;;;15.40;97.30;;;13.54;75.27;99297.41;10301595;28;96837;-76
2022/04/23 11:21:26;;;;;;;6.63;5.25;;;15.30;97.80;;;13.48;73.69;99292.09;10320180;28;98368;-76
2022/04/23 11:26:44;;;;;;;7.72;5.13;;;15.20;98.00;;;13.45;78.40;99288.00;10331506;28;96688;-76
2022/04/23 11:31:52;;;;;;;6.63;4.88;;;15.20;98.80;;;13.39;74.14;99288.84;10313484;28;98092;-76
2022/04/23 11:36:55;;;;;;;5.25;4.40;;;15.20;98.40;;;13.37;78.32;99288.19;10302927;28;97703;-76
2022/04/23 11:41:58;;;;;;;7.93;5.05;;;15.10;98.90;;;13.45;76.68;99284.50;10301453;28;97023;-78
2022/04/23 11:47:01;;;;;;;7.00;5.97;;;15.20;99.10;;;13.52;76.97;99286.13;10310856;28;98729;-77
2022/04/23 11:52:11;;;;;;;6.20;4.63;;;15.20;98.70;;;13.61;78.27;99305.41;10332583;28;97274;-75
2022/04/23 11:57:16;;;;;;;7.80;6.67;;;15.30;98.90;;;13.60;75.18;99296.56;10325175;28;97522;-77
2022/04/23 12:02:22;;;;;;;8.13;5.47;;;15.30;97.80;;;13.72;80.27;99302.09;10316549;28;96644;-77
2022/04/23 12:07:31;;;;;;;6.53;5.32;;;15.30;99.10;;;13.89;77.77;99289.09;10334374;28;96836;-77
2022/04/23 12:12:34;;;;;;;7.53;5.18;;;15.50;98.70;;;14.14;77.36;99299.88;10351925;28;96530;-77
2022/04/23 12:17:47;;;;;;;5.88;4.80;;;15.70;99.10;;;14.43;76.83;99288.63;10342169;28;96711;-78
2022/04/23 12:23:07;;;;;;;8.07;5.07;;;16.00;98.80;;;14.67;73.52;99278.22;10295632;28;97436;-77
2022/04/23 12:44:49;;;;;;;5.70;4.80;;;16.50;94.00;;;14.81;66.37;99260.22;10323983;28;97592;-77
2022/04/23 12:50:03;;;;;;;6.82;5.35;;;16.50;93.50;;;15.08;70.77;99263.50;10364633;28;97288;-77
2022/04/23 12:55:12;;;;;;;6.25;4.75;;;16.70;94.30;;;15.48;65.29;99253.22;10353450;28;96479;-77
2022/04/23 13:00:21;;;;;;;6.57;4.85;;;17.20;93.30;;;15.83;66.95;99260.66;10318160;28;98144;-77
2022/04/23 13:05:26;;;;;;;5.80;4.85;;;17.50;93.20;;;16.25;64.57;99254.34;10333187;28;96785;-77
2022/04/23 13:10:30;;;;;;;6.53;4.57;;;18.10;92.50;;;16.71;63.14;99252.88;10331197;28;97045;-77
2022/04/23 13:15:35;;;;;;;6.75;4.40;;;18.70;90.90;;;17.10;59.95;99232.59;10332027;28;98183;-77
2022/04/23 13:20:39;;;;;;;4.95;4.05;;;19.50;87.90;;;17.18;58.61;99234.13;10330776;28;96514;-77
2022/04/23 13:25:42;;;;;;;4.45;3.20;;;19.60;81.90;;;17.94;56.56;99237.63;10336166;28;96796;-78
2022/04/23 13:30:45;;;;;;;5.25;4.00;;;20.40;79.50;;;18.64;52.25;99239.97;10329398;28;96695;-77
2022/04/23 13:35:48;;;;;;;14.75;10.45;;;21.00;75.70;;;19.21;54.61;99229.03;10342106;28;96671;-77
2022/04/23 13:40:51;;;;;;;5.40;3.92;;;21.50;73.10;;;19.03;51.93;99237.41;10304366;28;96514;-77
2022/04/23 13:45:54;;;;;;;5.15;4.28;;;21.40;70.00;;;18.33;54.39;99230.56;10293543;28;97044;-77
2022/04/23 13:51:01;;;;;;;5.53;4.60;;;20.80;68.40;;;17.69;57.80;99247.81;10312555;28;96807;-77
2022/04/23 13:56:05;;;;;;;7.65;4.20;;;20.00;69.80;;;17.17;55.31;99248.59;10353149;28;96591;-77
2022/04/23 14:01:08;;;;;;;5.07;3.92;;;19.40;70.10;;;16.88;59.49;99247.63;10317263;28;96806;-77
2022/04/23 14:11:32;;;;;;;26.10;23.65;;;18.60;71.40;;;16.38;60.29;99242.63;10345260;28;97987;-77
2022/04/23 14:16:35;;;;;;;9.50;7.50;;;18.30;73.00;;;16.16;57.32;99249.53;10315201;28;97006;-77
2022/04/23 14:21:38;;;;;;;6.00;4.47;;;18.00;72.40;;;15.97;61.02;99243.41;10314031;28;97242;-77
2022/04/23 14:26:41;;;;;;;8.43;4.70;;;17.80;74.30;;;15.67;59.24;99241.50;10303334;28;97311;-76
2022/04/23 14:31:44;;;;;;;7.35;5.82;;;17.50;74.80;;;15.46;61.00;99255.28;10325970;28;97271;-77
2022/04/23 14:36:47;;;;;;;7.90;5.95;;;17.20;75.90;;;15.24;64.06;99252.22;10318544;28;98050;-79
2022/04/23 14:41:50;;;;;;;8.50;6.40;;;17.00;77.30;;;15.10;63.44;99264.91;10334177;28;97065;-77
2022/04/23 14:46:53;;;;;;;8.57;6.45;;;16.80;78.70;;;14.94;64.18;99263.63;10346023;28;96699;-77
2022/04/23 14:57:22;;;;;;;13.82;11.10;;;16.50;81.30;;;14.62;65.31;99273.50;10332243;28;97083;-78
2022/04/23 15:02:25;;;;;;;12.50;10.02;;;16.30;82.50;;;14.48;65.06;99276.50;10321622;28;96606;-79
2022/04/23 15:07:29;;;;;;;14.73;12.15;;;16.20;83.90;;;14.42;65.22;99283.50;10336558;28;97552;-78
2022/04/23 15:12:32;;;;;;;16.13;11.30;;;16.10;84.70;;;14.38;65.57;99287.63;10334430;28;98078;-77
2022/04/23 15:17:35;;;;;;;11.23;7.43;;;16.00;86.20;;;14.33;66.53;99284.78;10356420;28;96665;-78
2022/04/23 15:22:38;;;;;;;11.75;8.68;;;15.90;87.60;;;14.23;66.66;99271.88;10313887;28;96586;-78
2022/04/23 15:27:43;;;;;;;12.60;9.52;;;15.80;88.80;;;14.16;66.51;99271.94;10330629;28;96600;-77
2022/04/23 15:32:46;;;;;;;11.68;8.32;;;15.80;90.10;;;14.12;67.92;99276.03;10302790;28;96740;-77
2022/04/23 15:37:50;;;;;;;12.00;8.48;;;15.70;91.10;;;14.03;69.16;99276.50;10356205;28;97845;-78
2022/04/23 15:42:54;;;;;;;9.88;7.45;;;15.60;92.10;;;13.93;68.26;99276.97;10327853;28;96498;-78
2022/04/23 15:47:57;;;;;;;12.57;9.48;;;15.60;92.50;;;13.84;68.93;99280.88;10335387;28;96669;-79
2022/04/23 15:53:00;;;;;;;21.50;13.88;;;15.50;93.40;;;13.72;69.40;99280.72;10303312;28;99076;-80
2022/04/23 15:58:03;;;;;;;18.48;11.63;;;15.30;94.50;;;13.60;69.95;99277.88;10318395;28;97651;-78
2022/04/23 16:03:26;;;;;;;13.00;10.00;;;15.20;95.70;;;13.51;70.09;99279.16;10318479;28;98515;-78
2022/04/23 16:08:29;;;;;;;24.55;12.95;;;15.10;96.40;;;13.44;70.84;99278.34;10333249;28;96574;-77
2022/04/23 16:13:33;;;;;;;16.00;10.47;;;15.00;97.30;;;13.37;70.79;99277.53;10355862;28;98610;-77
2022/04/23 16:18:56;;;;;;;13.70;9.18;;;14.90;97.90;;;13.32;71.90;99274.69;10344971;28;96595;-77
2022/04/23 16:23:59;;;;;;;11.00;8.53;;;14.90;98.80;;;13.27;72.27;99279.81;10324305;28;97459;-77
2022/04/23 16:29:02;;;;;;;11.23;9.38;;;14.80;99.40;;;13.21;72.73;99277.97;10352034;28;98273;-77
2022/04/23 16:34:05;;;;;;;11.65;8.68;;;14.70;99.90;;;13.14;73.22;99283.28;10297996;28;96700;-76
2022/04/23 16:49:51;;;;;;;;;;;14.60;99.90;;;13.01;74.23;99294.75;10308480;28;98374;-77
2022/04/23 16:54:54;;;;;;;16.23;11.37;;;14.60;99.90;;;12.94;74.70;99288.63;10297060;28;96480;-76
2022/04/23 16:59:58;;;;;;;15.30;11.67;;;14.50;99.90;;;12.92;75.56;99282.69;10356772;28;96637;-76
2022/04/23 17:05:01;;;;;;;17.10;12.00;;;14.50;99.90;;;12.91;76.56;99283.72;10334187;28;98296;-76
2022/04/23 17:10:05;;;;;;;19.63;12.10;;;14.50;99.90;;;12.93;77.30;99278.16;10307983;28;99033;-76
2022/04/23 17:15:09;;;;;;;16.23;11.87;;;14.50;99.90;;;12.90;77.30;99287.41;10306545;28;98615;-76
2022/04/23 17:20:12;;;;;;;17.47;12.37;;;14.50;99.90;;;12.89;77.95;99282.25;10310345;28;98545;-76
2022/04/23 17:25:14;;;;;;;14.90;12.17;;;14.50;99.90;;;12.85;78.28;99271.19;10306200;28;98140;-76
2022/04/23 17:30:22;;;;;;;15.80;12.33;;;14.50;99.90;;;12.84;79.14;99274.91;10317342;28;96690;-77
2022/04/23 17:35:26;;;;;;;29.90;13.23;;;14.50;99.90;;;12.81;79.36;99280.63;10326770;28;96606;-76
2022/04/23 17:40:29;;;;;;;17.00;13.20;;;14.40;99.90;;;12.75;80.11;99279.59;10325436;28;96550;-76
2022/04/23 17:45:32;;;;;;;26.13;15.83;;;14.40;99.90;;;12.72;80.80;99280.00;10317259;28;97774;-76
2022/04/23 17:50:38;;;;;;;33.20;18.20;;;14.40;99.90;;;12.68;81.35;99283.28;10327719;28;96637;-76
2022/04/23 17:55:41;;;;;;;36.17;20.27;;;14.30;99.90;;;12.63;81.39;99285.72;10324586;28;96489;-76
2022/04/23 18:11:27;;;;;;;;;;;14.20;99.90;;;12.46;82.09;99304.75;10341353;28;96635;-76
2022/04/23 18:16:31;;;;;;;21.90;15.73;;;14.10;99.90;;;12.37;82.73;99311.31;10321563;28;97402;-76
2022/04/23 18:21:35;;;;;;;27.20;17.47;;;14.10;99.90;;;12.28;82.80;99313.31;10318410;28;96527;-76
2022/04/23 18:26:38;;;;;;;55.10;35.43;;;14.00;99.90;;;12.16;83.12;99320.25;10329462;28;96724;-78
2022/04/23 18:31:42;;;;;;;67.53;39.93;;;13.90;99.90;;;12.00;82.68;99316.09;10330543;28;98286;-78
2022/04/23 18:36:46;;;;;;;73.07;44.83;;;13.80;99.90;;;11.86;83.34;99318.88;10317506;28;98643;-76
2022/04/23 18:41:55;;;;;;;26.17;18.67;;;13.60;99.90;;;11.66;83.49;99329.41;10321806;28;96760;-76
2022/04/23 18:46:58;;;;;;;35.20;24.40;;;13.40;99.90;;;11.50;84.10;99335.84;10310791;28;96578;-76
2022/04/23 18:52:02;;;;;;;52.37;33.93;;;13.20;99.90;;;11.35;84.74;99327.16;10316914;28;97628;-76
2022/04/23 18:57:05;;;;;;;44.17;29.07;;;13.10;99.90;;;11.20;85.26;99311.28;10295186;28;96628;-77
2022/04/23 19:02:09;;;;;;;35.37;24.57;;;13.00;99.90;;;11.03;85.52;99308.09;10313424;28;96982;-77
2022/04/23 19:07:13;;;;;;;33.60;22.57;;;12.80;99.90;;;10.84;86.01;99309.56;10319144;28;97217;-75
2022/04/23 19:12:17;;;;;;;30.30;21.33;;;12.60;99.90;;;10.66;86.27;99317.16;10312823;28;96927;-75
2022/04/23 19:17:20;;;;;;;36.37;24.17;;;12.40;99.90;;;10.49;86.76;99319.25;10301724;28;97591;-77
2022/04/23 19:27:46;;;;;;;39.00;23.27;;;12.10;99.90;;;10.18;87.49;99328.28;10295409;28;96602;-77
2022/04/23 19:32:49;;;;;;;32.63;22.63;;;11.90;99.90;;;10.07;87.64;99323.44;10349712;28;96992;-77
2022/04/23 19:37:52;;;;;;;30.73;19.70;;;11.80;99.90;;;10.01;88.02;99336.63;10340557;28;97858;-77
2022/04/23 19:43:00;;;;;;;30.17;20.00;;;11.70;99.90;;;9.93;88.03;99335.72;10329831;28;96502;-77
2022/04/23 19:48:03;;;;;;;31.43;19.80;;;11.60;99.90;;;9.88;88.16;99340.75;10324351;28;96914;-77
2022/04/23 19:53:06;;;;;;;29.63;20.97;;;11.60;99.90;;;9.82;88.73;99338.84;10308552;28;96958;-77
2022/04/23 19:58:09;;;;;;;35.73;22.17;;;11.50;99.90;;;9.75;89.08;99343.25;10322922;28;96676;-76
2022/04/23 20:03:12;;;;;;;33.33;21.60;;;11.40;99.90;;;9.69;89.36;99346.63;10310370;28;98559;-77
2022/04/23 20:08:16;;;;;;;32.80;21.30;;;11.40;99.90;;;9.66;89.82;99344.38;10346534;28;96580;-77
2022/04/23 20:13:19;;;;;;;28.93;19.13;;;11.30;99.90;;;9.62;89.97;99351.03;10345128;28;98375;-77
2022/04/23 20:18:22;;;;;;;33.57;22.00;;;11.30;99.90;;;9.62;90.65;99358.97;10320581;28;97604;-76
2022/04/23 20:23:26;;;;;;;33.07;22.40;;;11.30;99.90;;;9.64;91.01;99362.28;10316015;28;97094;-77
2022/04/23 20:33:53;;;;;;;40.07;23.73;;;11.30;99.90;;;9.71;91.75;99368.50;10308472;28;97342;-77
2022/04/23 20:39:16;;;;;;;37.70;23.30;;;11.40;99.90;;;9.75;92.08;99356.50;10306758;28;97034;-77
2022/04/23 20:44:22;;;;;;;41.80;23.20;;;11.40;99.90;;;9.80;92.39;99356.78;10311306;28;96542;-76
2022/04/23 20:49:24;;;;;;;37.70;24.37;;;11.40;99.90;;;9.84;92.42;99357.25;10303902;28;96526;-76
2022/04/23 20:54:28;;;;;;;36.53;22.67;;;11.50;99.90;;;9.88;92.97;99347.91;10314629;28;96780;-76
2022/04/23 20:59:31;;;;;;;41.07;24.17;;;11.50;99.90;;;9.93;93.10;99346.34;10299930;28;96727;-76
2022/04/23 21:04:33;;;;;;;41.97;24.80;;;11.50;99.90;;;9.98;93.45;99343.16;10318025;28;97145;-76
2022/04/23 21:09:40;;;;;;;54.60;31.23;;;11.60;99.90;;;10.03;93.78;99345.25;10330524;28;98461;-75
2022/04/23 21:14:43;;;;;;;70.10;37.50;;;11.70;99.90;;;10.09;93.79;99360.44;10314341;28;96576;-77
2022/04/23 21:19:46;;;;;;;113.70;55.17;;;11.70;99.90;;;10.14;94.17;99364.19;10386738;28;96633;-77
2022/04/23 21:24:49;;;;;;;46.20;29.77;;;11.70;99.90;;;10.18;94.12;99359.31;10339840;28;96571;-78
2022/04/23 21:29:52;;;;;;;60.77;34.87;;;11.80;99.90;;;10.17;94.20;99362.97;10306005;28;97554;-78
2022/04/23 21:34:55;;;;;;;54.97;34.13;;;11.80;99.90;;;10.15;94.73;99365.00;10336337;28;96705;-78
2022/04/23 21:39:58;;;;;;;45.63;31.70;;;11.80;99.90;;;10.11;95.04;99359.22;10347893;28;97057;-78
2022/04/23 21:45:03;;;;;;;47.57;30.03;;;11.80;99.90;;;10.06;95.77;99352.84;10311730;28;97728;-78
2022/04/23 21:50:10;;;;;;;55.27;33.87;;;11.80;99.90;;;10.02;96.42;99357.72;10309828;28;96969;-77
2022/04/23 21:55:14;;;;;;;54.00;34.70;;;11.70;99.90;;;9.96;96.97;99352.31;10331241;28;96776;-78
2022/04/23 22:00:37;;;;;;;45.47;29.80;;;11.60;99.90;;;9.88;97.21;99353.22;10295151;28;98055;-78
2022/04/23 22:05:40;;;;;;;42.93;27.30;;;11.50;99.90;;;9.83;97.70;99355.59;10328254;28;96503;-78
2022/04/23 22:10:44;;;;;;;49.93;31.30;;;11.40;99.90;;;9.77;98.18;99346.53;10345760;28;99149;-78
2022/04/23 22:15:47;;;;;;;50.07;30.00;;;11.40;99.90;;;9.74;98.90;99352.22;10324529;28;98273;-78
2022/04/23 22:20:50;;;;;;;48.13;29.83;;;11.40;99.90;;;9.71;99.11;99352.56;10332686;28;96582;-78
2022/04/23 22:25:53;;;;;;;48.63;29.63;;;11.30;99.90;;;9.69;99.64;99349.28;10306446;28;98156;-78
2022/04/23 22:30:56;;;;;;;51.30;29.90;;;11.30;99.90;;;9.64;99.87;99339.22;10302359;28;96572;-78
2022/04/23 22:35:59;;;;;;;59.80;33.30;;;11.30;99.90;;;9.63;100.00;99339.41;10339605;28;96603;-78
2022/04/23 22:41:02;;;;;;;50.73;29.60;;;11.30;99.90;;;9.61;100.00;99346.72;10317711;28;97364;-78